RAIN

Not for real navigation. The accuracy of this data is not assured See disclaimer for more information



ICAO NAME COUNTRY WIND Kt GUST Kt VIS m TEMP/DEW C BARO METAR
PABA Barter Island, Barter Island L AK United States 18 0 400 7/7 29.86 PABA 281152Z AUTO 09018KT 0.25SM -RA FG OVC003 07/07 A2986 RMK AO2 SLP098 P0000 60000 T00670067 1007
PAPB ST. GEORGE AIRPORT AK United States 9 0 400 0/0 29.94 PAPB 281153Z AUTO 25009KT 0.25SM FG VV001 A2994 RMK AO2 SLPNO 70002 58010 FZRANO TS $
PASY SHEMYA EARECKSON AS AK United States 10 0 400 9/9 30.24 PASY 281156Z 20010KT 0.25SM FG VV002 09/09 A3024 RMK AO2 RAB38E48 SLP239 WND DATA ESTMD 60014 70014
PAIW Wales AK United States 21 28 800 10/9 29.54 PAIW 281158Z AUTO 19021G28KT 0.5SM -RA FG OVC002 10/09 A2954 RMK AO2 PK WND 18028/1154 SLP002 6////
KONX Currituck, Currituck County Ai NC United States 11 17 800 0/0 29.90 KONX 281215Z AUTO 10011G17KT 080V150 0.5SM +RA OVC006 A2990 RMK AO2 P0046

Show more